Time;durP1;ratioP1;P1;durP2;ratioP2;P2;SDS_P1;SDS_P2;PMS_P1;PMS_P2;Temp;Humidity;BMP_temperature;BMP_pressure;BME280_temperature;BME280_humidity;BME280_pressure;Samples;Min_cycle;Max_cycle;Signal;HPM_P1;HPM_P2
2023/06/01 00:00:24;;;;;;;;;;;;;;;9.60;61.76;97495.43;109058;1249;95830;-75
2023/06/01 00:03:12;;;;;;;;;;;;;;;9.55;61.89;97495.53;109008;1249;95605;-73
2023/06/01 00:05:40;;;;;;;;;;;;;;;9.53;61.90;97496.21;109033;1249;103493;-73
2023/06/01 00:08:08;;;;;;;;;;;;;;;9.51;61.92;97497.20;109038;1250;101037;-74
2023/06/01 00:10:36;;;;;;;;;;;;;;;9.47;62.00;97495.02;109041;1249;100131;-73
2023/06/01 00:13:04;;;;;;;;;;;;;;;9.42;61.93;97496.16;108693;1249;95586;-73
2023/06/01 00:15:32;;;;;;;;;;;;;;;9.35;62.00;97492.45;108987;1249;96429;-73
2023/06/01 00:18:00;;;;;;;;;;;;;;;9.31;62.17;97488.73;108765;1249;102684;-76
2023/06/01 00:20:28;;;;;;;;;;;;;;;9.29;62.22;97488.86;109041;1249;100301;-74
2023/06/01 00:22:58;;;;;;;;;;;;;;;9.27;62.22;97486.63;109075;1249;100142;-74
2023/06/01 00:25:26;;;;;;;;;;;;;;;9.26;62.51;97486.94;109062;1249;95796;-73
2023/06/01 00:27:54;;;;;;;;;;;;;;;9.24;62.42;97485.11;109098;1249;95609;-73
2023/06/01 00:30:22;;;;;;;;;;;;;;;9.20;62.39;97487.45;109036;1249;103594;-77
2023/06/01 00:32:50;;;;;;;;;;;;;;;9.14;62.58;97488.50;109029;1249;101612;-73
2023/06/01 00:35:18;;;;;;;;;;;;;;;9.06;62.78;97485.98;108995;1250;100117;-75
2023/06/01 00:37:46;;;;;;;;;;;;;;;9.03;62.88;97484.48;108968;1249;95596;-73
2023/06/01 00:40:14;;;;;;;;;;;;;;;9.03;63.02;97480.71;109021;1250;95629;-73
2023/06/01 00:42:42;;;;;;;;;;;;;;;9.03;62.96;97484.40;108749;1250;103508;-76
2023/06/01 00:45:10;;;;;;;;;;;;;;;9.01;63.04;97482.98;108962;1250;101865;-77
2023/06/01 00:47:41;;;;;;;;;;;;;;;8.98;62.92;97485.85;109025;1249;99098;-71
2023/06/01 00:50:10;;;;;;;;;;;;;;;8.94;62.91;97485.30;109023;1253;95587;-73
2023/06/01 00:52:38;;;;;;;;;;;;;;;8.88;62.84;97487.34;109024;1249;95692;-73
2023/06/01 00:55:07;;;;;;;;;;;;;;;8.84;62.86;97487.05;108999;1249;103621;-73
2023/06/01 00:57:35;;;;;;;;;;;;;;;8.80;63.08;97489.61;108823;1249;101420;-73
2023/06/01 01:00:08;;;;;;;;;;;;;;;8.79;63.12;97489.81;109047;1249;99980;-73
2023/06/01 01:02:38;;;;;;;;;;;;;;;8.76;63.00;97487.72;108970;1249;95876;-75
2023/06/01 01:05:09;;;;;;;;;;;;;;;8.72;63.07;97485.73;109045;1251;95617;-76
2023/06/01 01:07:41;;;;;;;;;;;;;;;8.67;63.19;97482.41;108755;1250;102664;-73
2023/06/01 01:10:20;;;;;;;;;;;;;;;8.64;63.27;97480.86;109027;1250;101162;-74
2023/06/01 01:12:52;;;;;;;;;;;;;;;8.60;63.35;97479.70;109037;1249;99436;-73
2023/06/01 01:15:43;;;;;;;;;;;;;;;8.57;63.47;97483.92;109023;1249;95577;-74
2023/06/01 01:18:19;;;;;;;;;;;;;;;8.55;63.51;97489.95;108310;1257;96719;-75
2023/06/01 01:20:52;;;;;;;;;;;;;;;8.51;63.55;97488.96;108306;1257;103553;-75
2023/06/01 01:23:43;;;;;;;;;;;;;;;8.47;63.52;97486.94;108293;1257;110095;-73
2023/06/01 01:26:13;;;;;;;;;;;;;;;8.44;63.60;97487.13;108276;1257;100285;-74
2023/06/01 01:28:54;;;;;;;;;;;;;;;8.40;63.81;97486.15;108148;1257;95613;-73
2023/06/01 01:31:24;;;;;;;;;;;;;;;8.35;63.83;97485.81;108301;1257;96063;-76
2023/06/01 01:33:53;;;;;;;;;;;;;;;8.31;63.85;97480.94;108314;1257;102533;-73
2023/06/01 01:36:22;;;;;;;;;;;;;;;8.26;64.07;97481.21;108273;1257;101395;-73
2023/06/01 01:38:50;;;;;;;;;;;;;;;8.22;64.16;97481.49;108258;1257;99915;-74
2023/06/01 01:41:18;;;;;;;;;;;;;;;8.21;64.22;97480.96;108248;1257;95631;-77
2023/06/01 01:43:46;;;;;;;;;;;;;;;8.16;64.36;97476.79;108304;1257;95727;-74
2023/06/01 01:46:14;;;;;;;;;;;;;;;8.05;64.58;97479.91;108287;1257;103917;-72
2023/06/01 01:49:00;;;;;;;;;;;;;;;7.97;64.79;97480.71;108290;1257;101612;-73
2023/06/01 01:51:37;;;;;;;;;;;;;;;7.97;64.84;97480.55;108259;1257;99927;-73
2023/06/01 01:54:06;;;;;;;;;;;;;;;7.99;64.79;97480.02;108251;1257;95645;-74
2023/06/01 01:56:36;;;;;;;;;;;;;;;7.98;64.69;97478.89;108927;1249;95597;-73
2023/06/01 01:59:04;;;;;;;;;;;;;;;7.95;64.61;97479.20;109028;1250;103605;-73
2023/06/01 02:01:33;;;;;;;;;;;;;;;7.91;64.69;97478.23;108993;1250;101534;-76
2023/06/01 02:04:07;;;;;;;;;;;;;;;7.89;64.71;97475.64;109001;1249;98909;-73
2023/06/01 02:06:36;;;;;;;;;;;;;;;7.86;64.74;97475.52;109003;1249;95537;-72
2023/06/01 02:09:07;;;;;;;;;;;;;;;7.85;64.84;97474.27;108996;1249;95745;-73
2023/06/01 02:11:35;;;;;;;;;;;;;;;7.82;64.89;97474.22;108988;1250;111899;-73
2023/06/01 02:14:03;;;;;;;;;;;;;;;7.79;64.84;97471.91;109047;1250;101101;-73
2023/06/01 02:16:31;;;;;;;;;;;;;;;7.75;65.08;97468.88;108983;1249;99930;-73
2023/06/01 02:18:59;;;;;;;;;;;;;;;7.73;65.05;97465.90;108992;1249;95569;-73
2023/06/01 02:21:27;;;;;;;;;;;;;;;7.72;65.09;97464.08;109027;1249;95877;-77
2023/06/01 02:23:55;;;;;;;;;;;;;;;7.70;65.17;97464.34;108992;1249;103634;-74
2023/06/01 02:26:23;;;;;;;;;;;;;;;7.67;65.22;97465.41;109072;1249;101438;-73
2023/06/01 02:28:54;;;;;;;;;;;;;;;7.64;65.22;97464.84;108760;1250;99702;-73
2023/06/01 02:31:22;;;;;;;;;;;;;;;7.63;65.19;97458.59;108964;1250;95557;-73
2023/06/01 02:33:51;;;;;;;;;;;;;;;7.60;65.20;97455.35;108803;1249;95690;-73
2023/06/01 02:36:19;;;;;;;;;;;;;;;7.59;65.37;97451.64;109008;1249;102420;-72
2023/06/01 02:38:47;;;;;;;;;;;;;;;7.59;65.51;97446.10;109025;1249;101227;-73
2023/06/01 02:41:15;;;;;;;;;;;;;;;7.60;65.44;97446.60;108982;1249;100291;-73
2023/06/01 02:43:43;;;;;;;;;;;;;;;7.58;65.33;97447.11;108987;1250;95838;-73
2023/06/01 02:46:11;;;;;;;;;;;;;;;7.56;65.43;97446.67;108977;1250;96297;-73
2023/06/01 02:48:39;;;;;;;;;;;;;;;7.54;65.44;97443.71;108853;1249;103551;-73
2023/06/01 02:51:07;;;;;;;;;;;;;;;7.51;65.45;97441.62;109060;1250;101470;-73
2023/06/01 02:53:35;;;;;;;;;;;;;;;7.47;65.48;97441.95;108966;1250;100088;-73
2023/06/01 02:56:03;;;;;;;;;;;;;;;7.44;65.60;97439.27;108993;1250;95967;-73
2023/06/01 02:58:31;;;;;;;;;;;;;;;7.41;65.68;97437.13;108986;1249;95711;-73
2023/06/01 03:00:59;;;;;;;;;;;;;;;7.38;65.76;97437.43;109035;1249;103344;-73
2023/06/01 03:03:27;;;;;;;;;;;;;;;7.37;65.89;97439.52;109052;1249;100410;-73
2023/06/01 03:05:56;;;;;;;;;;;;;;;7.37;66.02;97437.25;109019;1249;99888;-73
2023/06/01 03:08:25;;;;;;;;;;;;;;;7.37;66.08;97432.41;108808;1249;95575;-73
2023/06/01 03:10:53;;;;;;;;;;;;;;;7.36;66.05;97433.79;108804;1249;95821;-73
2023/06/01 03:13:21;;;;;;;;;;;;;;;7.36;66.13;97432.42;109051;1251;103529;-73
2023/06/01 03:15:50;;;;;;;;;;;;;;;7.36;66.14;97435.08;109025;1249;101267;-75
2023/06/01 03:18:18;;;;;;;;;;;;;;;7.34;66.26;97436.24;108979;1249;100150;-73
2023/06/01 03:20:47;;;;;;;;;;;;;;;7.32;66.24;97442.09;108951;1250;95642;-77
2023/06/01 03:23:15;;;;;;;;;;;;;;;7.28;66.43;97441.82;109050;1249;96484;-72
2023/06/01 03:25:43;;;;;;;;;;;;;;;7.27;66.46;97441.70;109061;1249;104291;-74
2023/06/01 03:28:11;;;;;;;;;;;;;;;7.28;66.48;97439.50;108973;1250;101196;-73
2023/06/01 03:30:39;;;;;;;;;;;;;;;7.28;66.58;97438.27;108984;1250;100073;-73
2023/06/01 03:33:07;;;;;;;;;;;;;;;7.27;66.63;97437.06;108806;1249;95566;-75
2023/06/01 03:35:35;;;;;;;;;;;;;;;7.26;66.74;97434.02;109031;1249;95571;-76
2023/06/01 03:38:04;;;;;;;;;;;;;;;7.26;66.83;97431.67;109017;1250;103718;-76
2023/06/01 03:40:32;;;;;;;;;;;;;;;7.28;66.97;97426.12;108782;1249;101484;-75
2023/06/01 03:43:00;;;;;;;;;;;;;;;7.29;66.98;97422.83;108938;1250;99803;-73
2023/06/01 03:45:28;;;;;;;;;;;;;;;7.32;67.10;97424.36;109012;1249;95767;-73
2023/06/01 03:47:55;;;;;;;;;;;;;;;7.35;67.26;97428.95;109016;1249;95722;-73
2023/06/01 03:50:24;;;;;;;;;;;;;;;7.36;67.32;97422.89;109061;1250;102076;-73
2023/06/01 03:52:52;;;;;;;;;;;;;;;7.38;67.31;97423.71;108802;1250;101641;-77
2023/06/01 03:55:20;;;;;;;;;;;;;;;7.40;67.42;97422.58;108991;1249;100082;-76
2023/06/01 03:57:48;;;;;;;;;;;;;;;7.42;67.48;97417.89;109075;1253;95795;-78
2023/06/01 04:00:19;;;;;;;;;;;;;;;7.45;67.56;97414.29;108974;1249;95594;-74
2023/06/01 04:02:55;;;;;;;;;;;;;;;7.48;67.63;97414.94;109044;1249;103522;-72
2023/06/01 04:05:24;;;;;;;;;;;;;;;7.52;67.79;97415.67;108877;1250;101383;-73
2023/06/01 04:07:52;;;;;;;;;;;;;;;7.56;67.91;97413.41;108829;1249;98874;-73
2023/06/01 04:10:20;;;;;;;;;;;;;;;7.59;68.06;97412.45;108964;1249;95529;-76
2023/06/01 04:12:50;;;;;;;;;;;;;;;7.65;68.17;97410.54;109027;1249;95760;-73
2023/06/01 04:15:20;;;;;;;;;;;;;;;7.71;68.28;97412.26;109017;1249;102824;-75
2023/06/01 04:17:48;;;;;;;;;;;;;;;7.77;68.34;97412.73;109038;1249;101303;-73
2023/06/01 04:20:17;;;;;;;;;;;;;;;7.83;68.27;97413.23;108816;1249;99951;-76
2023/06/01 04:22:46;;;;;;;;;;;;;;;7.88;68.41;97410.45;108969;1250;95516;-74
2023/06/01 04:25:17;;;;;;;;;;;;;;;7.92;68.39;97409.92;109025;1250;96440;-73
2023/06/01 04:27:46;;;;;;;;;;;;;;;7.97;68.52;97408.26;109004;1250;103392;-72
2023/06/01 04:30:16;;;;;;;;;;;;;;;8.00;68.68;97406.75;108995;1251;101290;-74
2023/06/01 04:32:45;;;;;;;;;;;;;;;8.05;68.79;97404.65;108946;1250;99814;-78
2023/06/01 04:35:13;;;;;;;;;;;;;;;8.11;68.83;97404.02;108973;1249;95484;-74
2023/06/01 04:37:42;;;;;;;;;;;;;;;8.17;68.90;97400.52;108827;1250;95854;-72
2023/06/01 04:40:12;;;;;;;;;;;;;;;8.24;68.97;97396.30;108861;1250;103871;-73
2023/06/01 04:42:42;;;;;;;;;;;;;;;8.32;69.20;97393.23;109011;1250;101261;-73
2023/06/01 04:45:13;;;;;;;;;;;;;;;8.39;69.34;97389.19;108986;1249;99912;-73
2023/06/01 04:47:44;;;;;;;;;;;;;;;8.47;69.46;97388.65;108960;1249;96091;-76
2023/06/01 04:50:15;;;;;;;;;;;;;;;8.55;69.42;97384.35;109003;1249;95625;-72
2023/06/01 04:52:43;;;;;;;;;;;;;;;8.64;69.63;97384.35;108821;1250;103033;-73
2023/06/01 04:55:12;;;;;;;;;;;;;;;8.73;69.63;97381.91;108821;1250;101329;-74
2023/06/01 04:57:43;;;;;;;;;;;;;;;8.84;69.45;97379.68;109024;1249;108280;-73
2023/06/01 05:00:12;;;;;;;;;;;;;;;8.93;69.39;97377.53;108945;1250;95556;-73
2023/06/01 05:02:42;;;;;;;;;;;;;;;9.02;69.58;97376.36;109015;1249;95972;-72
2023/06/01 05:05:11;;;;;;;;;;;;;;;9.13;69.74;97372.50;109022;1250;103453;-73
2023/06/01 05:07:39;;;;;;;;;;;;;;;9.22;69.95;97369.49;109057;1250;101521;-73
2023/06/01 05:10:08;;;;;;;;;;;;;;;9.31;70.06;97373.04;108984;1249;100198;-75
2023/06/01 05:12:37;;;;;;;;;;;;;;;9.41;70.12;97371.23;108980;1250;95955;-73
2023/06/01 05:15:06;;;;;;;;;;;;;;;9.51;70.14;97370.26;108806;1250;96628;-74
2023/06/01 05:17:34;;;;;;;;;;;;;;;9.60;70.12;97370.55;109035;1250;103753;-73
2023/06/01 05:20:03;;;;;;;;;;;;;;;9.70;70.13;97366.58;109020;1249;101292;-73
2023/06/01 05:22:31;;;;;;;;;;;;;;;9.81;70.20;97363.50;108766;1249;99470;-73
2023/06/01 05:24:59;;;;;;;;;;;;;;;9.91;70.16;97359.90;109006;1250;95630;-73
2023/06/01 05:27:27;;;;;;;;;;;;;;;10.03;70.39;97357.94;108988;1250;95706;-73
2023/06/01 05:29:55;;;;;;;;;;;;;;;10.16;70.31;97353.66;108999;1250;103547;-73
2023/06/01 05:32:23;;;;;;;;;;;;;;;10.28;70.41;97351.13;108987;1250;100992;-73
2023/06/01 05:34:51;;;;;;;;;;;;;;;10.40;70.42;97350.10;109017;1250;99880;-74
2023/06/01 05:37:19;;;;;;;;;;;;;;;10.52;70.38;97350.27;108977;1250;95527;-75
2023/06/01 05:39:47;;;;;;;;;;;;;;;10.64;70.34;97349.20;109033;1250;95593;-74
2023/06/01 05:42:15;;;;;;;;;;;;;;;10.75;70.10;97348.66;109050;1250;103455;-73
2023/06/01 05:44:43;;;;;;;;;;;;;;;10.86;70.07;97348.38;108675;1251;102506;-73
2023/06/01 05:47:11;;;;;;;;;;;;;;;10.98;69.94;97343.78;108970;1249;99948;-75
2023/06/01 05:49:38;;;;;;;;;;;;;;;11.11;70.13;97348.20;109012;1250;95585;-73
2023/06/01 05:52:07;;;;;;;;;;;;;;;11.24;69.95;97347.13;108997;1249;95631;-75
2023/06/01 05:54:35;;;;;;;;;;;;;;;11.37;69.57;97343.48;109040;1250;102687;-75
2023/06/01 05:57:03;;;;;;;;;;;;;;;11.49;69.09;97339.73;109046;1249;101274;-73
2023/06/01 05:59:42;;;;;;;;;;;;;;;11.61;68.89;97339.73;108968;1253;99611;-75
2023/06/01 06:02:13;;;;;;;;;;;;;;;11.73;68.61;97336.83;108948;1250;95498;-73
2023/06/01 06:04:41;;;;;;;;;;;;;;;11.86;68.42;97335.48;109050;1250;95626;-73
2023/06/01 06:07:11;;;;;;;;;;;;;;;11.99;68.16;97326.97;109015;1249;103740;-75
2023/06/01 06:09:39;;;;;;;;;;;;;;;12.12;67.81;97325.98;108993;1249;101309;-74
2023/06/01 06:12:07;;;;;;;;;;;;;;;12.25;67.44;97317.56;108951;1249;99942;-77
2023/06/01 06:14:35;;;;;;;;;;;;;;;12.45;67.15;97321.35;108999;1249;95541;-74
2023/06/01 06:17:03;;;;;;;;;;;;;;;12.61;67.08;97322.38;108774;1249;96605;-73
2023/06/01 06:19:31;;;;;;;;;;;;;;;12.76;67.24;97321.44;108982;1250;103554;-73
2023/06/01 06:21:59;;;;;;;;;;;;;;;12.89;67.64;97320.91;109020;1249;101457;-74
2023/06/01 06:24:27;;;;;;;;;;;;;;;13.04;67.72;97322.08;109010;1250;99832;-74
2023/06/01 06:26:55;;;;;;;;;;;;;;;13.17;67.64;97320.34;108737;1249;95584;-76
2023/06/01 06:29:23;;;;;;;;;;;;;;;13.29;67.41;97315.68;109015;1250;96403;-74
2023/06/01 06:31:51;;;;;;;;;;;;;;;13.42;67.21;97314.52;108988;1250;103512;-74
2023/06/01 06:34:19;;;;;;;;;;;;;;;13.57;67.32;97308.29;109020;1250;101351;-78
2023/06/01 06:36:47;;;;;;;;;;;;;;;13.73;67.32;97307.70;109015;1250;99912;-74
2023/06/01 06:39:16;;;;;;;;;;;;;;;13.86;67.08;97302.89;109002;1250;95495;-76
2023/06/01 06:41:44;;;;;;;;;;;;;;;13.99;66.39;97298.74;109062;1250;95569;-73
2023/06/01 06:44:12;;;;;;;;;;;;;;;14.12;65.87;97296.06;109045;1250;103507;-75
2023/06/01 06:46:40;;;;;;;;;;;;;;;14.25;66.05;97295.15;108959;1249;101304;-74
2023/06/01 06:49:09;;;;;;;;;;;;;;;14.39;66.13;97293.80;108987;1250;100014;-74
2023/06/01 06:51:38;;;;;;;;;;;;;;;14.54;65.90;97294.20;108979;1250;95634;-73
2023/06/01 06:54:06;;;;;;;;;;;;;;;14.69;65.69;97295.40;109000;1249;95695;-74
2023/06/01 06:56:34;;;;;;;;;;;;;;;14.84;65.62;97290.91;109014;1250;103538;-77
2023/06/01 06:59:02;;;;;;;;;;;;;;;14.99;64.84;97288.60;108973;1250;100997;-76
2023/06/01 07:01:31;;;;;;;;;;;;;;;15.12;64.85;97285.59;108790;1250;97870;-74
2023/06/01 07:03:59;;;;;;;;;;;;;;;15.27;64.82;97281.53;108981;1249;95553;-73
2023/06/01 07:06:27;;;;;;;;;;;;;;;15.41;64.40;97279.77;108938;1251;95631;-76
2023/06/01 07:08:55;;;;;;;;;;;;;;;15.59;64.39;97280.81;109036;1250;103667;-77
2023/06/01 07:11:23;;;;;;;;;;;;;;;15.74;64.18;97279.02;108796;1257;101092;-74
2023/06/01 07:13:51;;;;;;;;;;;;;;;15.89;63.85;97275.33;108967;1250;99014;-74
2023/06/01 07:16:19;;;;;;;;;;;;;;;16.04;63.83;97274.85;108961;1250;95570;-74
2023/06/01 07:18:47;;;;;;;;;;;;;;;16.19;63.59;97270.33;108974;1250;95665;-78
2023/06/01 07:21:15;;;;;;;;;;;;;;;16.33;63.18;97267.43;108991;1250;103224;-77
2023/06/01 07:23:43;;;;;;;;;;;;;;;16.47;62.93;97264.30;108995;1250;101679;-76
2023/06/01 07:26:11;;;;;;;;;;;;;;;16.65;62.91;97257.41;108959;1250;108552;-74
2023/06/01 07:28:41;;;;;;;;;;;;;;;16.83;62.54;97256.02;109009;1249;95590;-75
2023/06/01 07:31:10;;;;;;;;;;;;;;;17.02;61.71;97253.98;109020;1250;96344;-75
2023/06/01 07:33:38;;;;;;;;;;;;;;;17.19;61.80;97252.27;108976;1250;103506;-74
2023/06/01 07:36:06;;;;;;;;;;;;;;;17.37;61.44;97252.39;109008;1251;101551;-78
2023/06/01 07:38:37;;;;;;;;;;;;;;;17.52;60.73;97250.40;108967;1251;99741;-77
2023/06/01 07:41:05;;;;;;;;;;;;;;;17.67;59.77;97251.11;109025;1250;95555;-75
2023/06/01 07:43:36;;;;;;;;;;;;;;;17.84;58.10;97246.83;109001;1250;95741;-74
2023/06/01 07:46:07;;;;;;;;;;;;;;;18.01;56.31;97245.81;109010;1249;103515;-75
2023/06/01 07:48:37;;;;;;;;;;;;;;;18.22;55.24;97238.90;109012;1250;101020;-76
2023/06/01 07:51:07;;;;;;;;;;;;;;;18.52;53.80;97237.48;108801;1251;98937;-75
2023/06/01 07:53:36;;;;;;;;;;;;;;;18.95;52.68;97237.23;109023;1251;95563;-74
2023/06/01 07:56:04;;;;;;;;;;;;;;;19.45;51.98;97231.50;109025;1251;95612;-74
2023/06/01 07:58:32;;;;;;;;;;;;;;;20.01;51.45;97226.65;108705;1251;103485;-78
2023/06/01 08:01:00;;;;;;;;;;;;;;;20.61;50.73;97222.48;109015;1251;101346;-75
2023/06/01 08:03:28;;;;;;;;;;;;;;;21.22;49.86;97218.35;108781;1251;99950;-75
2023/06/01 08:05:59;;;;;;;;;;;;;;;21.81;48.75;97215.58;108650;1251;95998;-77
2023/06/01 08:08:27;;;;;;;;;;;;;;;22.43;47.80;97210.86;108837;1251;95595;-76
2023/06/01 08:10:55;;;;;;;;;;;;;;;22.95;46.93;97214.23;109097;1251;103521;-75
2023/06/01 08:13:25;;;;;;;;;;;;;;;23.32;46.17;97213.55;109026;1250;101034;-76
2023/06/01 08:15:53;;;;;;;;;;;;;;;23.56;44.77;97212.87;108990;1250;99804;-76
2023/06/01 08:18:22;;;;;;;;;;;;;;;23.95;44.25;97202.70;109002;1250;95549;-76
2023/06/01 08:20:50;;;;;;;;;;;;;;;24.30;43.58;97202.11;109051;1249;95600;-76
2023/06/01 08:23:22;;;;;;;;;;;;;;;24.66;43.15;97199.41;109029;1249;103549;-78
2023/06/01 08:25:50;;;;;;;;;;;;;;;25.04;42.76;97196.92;109016;1251;101265;-76
2023/06/01 08:28:18;;;;;;;;;;;;;;;25.32;41.86;97200.52;108773;1249;99930;-73
2023/06/01 08:30:46;;;;;;;;;;;;;;;25.44;40.96;97198.18;108975;1251;95545;-77
2023/06/01 08:33:15;;;;;;;;;;;;;;;25.72;40.53;97192.58;108813;1249;95747;-74
2023/06/01 08:35:43;;;;;;;;;;;;;;;26.00;39.85;97186.42;109045;1251;103205;-75
2023/06/01 08:38:11;;;;;;;;;;;;;;;26.35;39.38;97189.09;108811;1251;101320;-75
2023/06/01 08:40:40;;;;;;;;;;;;;;;26.71;38.88;97187.63;108967;1250;99304;-75
2023/06/01 08:43:15;;;;;;;;;;;;;;;27.11;38.38;97182.16;109013;1251;95563;-76
2023/06/01 08:45:44;;;;;;;;;;;;;;;27.37;37.56;97182.47;109041;1251;96444;-78
2023/06/01 08:48:15;;;;;;;;;;;;;;;27.69;37.15;97180.80;109011;1253;102548;-74
2023/06/01 08:50:44;;;;;;;;;;;;;;;27.98;36.31;97176.46;108763;1249;101124;-75
2023/06/01 08:53:12;;;;;;;;;;;;;;;28.25;36.03;97171.71;109000;1251;99926;-74
2023/06/01 08:55:40;;;;;;;;;;;;;;;28.39;35.32;97167.65;109019;1249;95531;-75
2023/06/01 08:58:08;;;;;;;;;;;;;;;28.63;35.25;97164.36;109034;1251;95716;-74
2023/06/01 09:00:36;;;;;;;;;;;;;;;29.00;34.86;97160.59;109014;1251;103396;-75
2023/06/01 09:03:04;;;;;;;;;;;;;;;29.35;34.66;97158.16;109039;1251;100437;-74
2023/06/01 09:05:32;;;;;;;;;;;;;;;29.69;33.93;97157.07;108965;1250;99983;-73
2023/06/01 09:08:00;;;;;;;;;;;;;;;29.92;33.91;97154.98;108915;1251;95867;-75
2023/06/01 09:10:28;;;;;;;;;;;;;;;30.05;33.15;97152.85;109047;1251;96418;-75
2023/06/01 09:13:00;;;;;;;;;;;;;;;30.27;32.68;97149.54;109076;1250;103521;-78
2023/06/01 09:15:28;;;;;;;;;;;;;;;30.51;32.03;97148.41;109036;1251;101006;-74
2023/06/01 09:18:07;;;;;;;;;;;;;;;30.73;31.77;97143.35;109052;1250;99986;-78
2023/06/01 09:20:37;;;;;;;;;;;;;;;30.91;31.45;97144.64;109024;1249;95931;-75
2023/06/01 09:23:05;;;;;;;;;;;;;;;31.07;31.03;97147.87;109097;1250;95622;-76
2023/06/01 09:25:34;;;;;;;;;;;;;;;31.17;30.60;97150.95;109058;1251;103446;-75
2023/06/01 09:28:03;;;;;;;;;;;;;;;31.07;29.88;97147.47;108857;1250;101481;-75
2023/06/01 09:30:40;;;;;;;;;;;;;;;31.08;30.09;97140.25;108719;1251;100237;-78
2023/06/01 09:33:16;;;;;;;;;;;;;;;31.21;29.94;97140.80;108928;1251;95867;-75
2023/06/01 09:35:45;;;;;;;;;;;;;;;31.31;29.50;97139.19;109021;1249;95566;-79
2023/06/01 09:38:21;;;;;;;;;;;;;;;31.05;29.04;97133.39;108740;1251;103652;-77
2023/06/01 09:41:00;;;;;;;;;;;;;;;30.94;29.11;97129.98;108768;1251;111167;-75
2023/06/01 09:43:28;;;;;;;;;;;;;;;31.11;29.02;97128.79;108772;1251;98320;-76
2023/06/01 09:46:05;;;;;;;;;;;;;;;31.19;28.49;97124.52;108726;1254;95815;-78
2023/06/01 09:48:33;;;;;;;;;;;;;;;31.09;28.56;97124.27;108880;1251;95596;-75
2023/06/01 09:51:01;;;;;;;;;;;;;;;31.08;28.68;97122.11;108786;1251;102650;-75
2023/06/01 09:53:29;;;;;;;;;;;;;;;31.10;28.74;97116.13;108687;1251;187911;-75
2023/06/01 09:56:00;;;;;;;;;;;;;;;31.23;28.51;97117.31;108727;1251;99918;-77
2023/06/01 09:58:28;;;;;;;;;;;;;;;31.24;28.76;97116.38;108774;1251;96279;-78
2023/06/01 10:01:00;;;;;;;;;;;;;;;31.30;28.31;97112.41;108809;1251;96342;-77
2023/06/01 10:03:29;;;;;;;;;;;;;;;31.51;28.23;97111.83;108819;1253;103115;-75
2023/06/01 10:05:58;;;;;;;;;;;;;;;31.71;27.81;97107.09;108807;1252;101468;-75
2023/06/01 10:08:27;;;;;;;;;;;;;;;31.76;27.87;97104.14;108676;1252;99875;-75
2023/06/01 10:10:55;;;;;;;;;;;;;;;31.53;27.70;97100.98;108790;1251;95604;-75
2023/06/01 10:13:24;;;;;;;;;;;;;;;31.58;27.20;97097.79;108917;1251;95636;-74
2023/06/01 10:15:56;;;;;;;;;;;;;;;31.70;27.31;97100.15;108850;1251;103505;-75
2023/06/01 10:18:24;;;;;;;;;;;;;;;31.78;27.02;97100.85;108896;1251;101034;-74
2023/06/01 10:20:52;;;;;;;;;;;;;;;31.78;27.13;97100.42;108832;1251;99277;-75
2023/06/01 10:23:20;;;;;;;;;;;;;;;31.69;27.55;97099.15;108848;1251;95540;-77
2023/06/01 10:25:50;;;;;;;;;;;;;;;31.50;27.67;97093.73;108779;1251;96630;-78
2023/06/01 10:28:19;;;;;;;;;;;;;;;31.54;27.49;97083.80;108770;1251;103811;-75
2023/06/01 10:30:47;;;;;;;;;;;;;;;31.65;27.57;97085.95;108760;1251;101173;-74
2023/06/01 10:33:15;;;;;;;;;;;;;;;31.73;27.22;97085.01;108733;1251;108085;-76
2023/06/01 10:35:43;;;;;;;;;;;;;;;31.88;27.35;97077.98;108698;1251;95810;-77
2023/06/01 10:38:12;;;;;;;;;;;;;;;32.06;27.23;97079.10;108682;1250;95731;-76
2023/06/01 10:40:42;;;;;;;;;;;;;;;32.14;27.19;97072.23;108974;1250;103345;-74
2023/06/01 10:43:28;;;;;;;;;;;;;;;32.09;26.94;97066.42;109018;1249;101763;-75
2023/06/01 10:45:56;;;;;;;;;;;;;;;32.16;27.25;97060.96;108911;1250;99988;-79
2023/06/01 10:48:44;;;;;;;;;;;;;;;32.28;27.24;97061.42;108718;1250;95639;-75
2023/06/01 10:51:22;;;;;;;;;;;;;;;32.42;26.67;97058.52;108900;1251;95653;-76
2023/06/01 10:53:50;;;;;;;;;;;;;;;32.34;26.67;97054.95;108894;1250;103641;-76
2023/06/01 10:56:17;;;;;;;;;;;;;;;32.23;27.09;97051.90;108859;1250;101330;-75
2023/06/01 10:58:46;;;;;;;;;;;;;;;32.24;26.98;97054.46;108870;1250;99461;-75
2023/06/01 11:01:19;;;;;;;;;;;;;;;32.10;26.60;97050.18;108654;1251;95654;-78
2023/06/01 11:03:50;;;;;;;;;;;;;;;31.90;26.52;97046.54;108872;1251;95596;-75
2023/06/01 11:06:26;;;;;;;;;;;;;;;31.96;27.08;97042.55;108916;1251;103520;-75
2023/06/01 11:08:56;;;;;;;;;;;;;;;32.03;26.73;97043.54;108835;1250;101123;-75
2023/06/01 11:11:25;;;;;;;;;;;;;;;32.04;27.12;97044.77;108809;1250;99911;-75
2023/06/01 11:14:10;;;;;;;;;;;;;;;31.92;26.88;97041.08;108784;1251;95625;-79
2023/06/01 11:16:38;;;;;;;;;;;;;;;31.92;27.02;97037.03;108804;1251;95603;-78
2023/06/01 11:19:07;;;;;;;;;;;;;;;32.07;26.84;97030.88;108815;1251;103792;-77
2023/06/01 11:21:40;;;;;;;;;;;;;;;32.29;26.38;97025.86;108779;1251;101152;-76
2023/06/01 11:24:15;;;;;;;;;;;;;;;32.46;26.10;97024.29;108811;1250;99949;-73
2023/06/01 11:26:47;;;;;;;;;;;;;;;32.55;26.04;97021.16;108881;1250;95891;-79
2023/06/01 11:29:17;;;;;;;;;;;;;;;32.52;26.13;97017.17;108906;1251;95617;-75
2023/06/01 11:31:48;;;;;;;;;;;;;;;32.55;25.50;97015.96;108997;1250;103517;-77
2023/06/01 11:34:18;;;;;;;;;;;;;;;32.36;25.45;97010.58;109025;1249;101042;-75
2023/06/01 11:36:51;;;;;;;;;;;;;;;32.32;25.54;97006.96;108943;1250;99936;-75
2023/06/01 11:39:22;;;;;;;;;;;;;;;32.38;25.47;97002.48;109083;1250;95560;-75
2023/06/01 11:41:51;;;;;;;;;;;;;;;32.28;25.46;97001.65;108859;1249;95705;-77
2023/06/01 11:44:19;;;;;;;;;;;;;;;32.29;25.54;96996.20;108835;1249;103069;-75
2023/06/01 11:46:54;;;;;;;;;;;;;;;32.30;25.36;96991.27;109121;1249;101373;-76
2023/06/01 11:49:22;;;;;;;;;;;;;;;32.35;25.59;96990.66;108994;1250;98919;-75
2023/06/01 11:51:52;;;;;;;;;;;;;;;32.35;25.82;96991.05;109069;1250;95857;-78
2023/06/01 11:54:24;;;;;;;;;;;;;;;32.27;25.74;96986.66;109072;1249;95629;-76
2023/06/01 11:56:53;;;;;;;;;;;;;;;32.32;25.66;96981.66;109092;1250;103516;-78
2023/06/01 11:59:22;;;;;;;;;;;;;;;32.40;25.32;96982.17;109036;1249;100346;-75
2023/06/01 12:01:52;;;;;;;;;;;;;;;32.45;25.33;96980.69;108654;1249;99618;-76
2023/06/01 12:04:23;;;;;;;;;;;;;;;32.55;25.24;96979.64;109012;1250;95549;-77
2023/06/01 12:06:51;;;;;;;;;;;;;;;32.64;25.33;96980.09;109043;1249;95957;-74
2023/06/01 12:09:20;;;;;;;;;;;;;;;32.66;25.33;96979.39;109045;1250;103434;-76
2023/06/01 12:11:48;;;;;;;;;;;;;;;32.60;25.53;96972.17;109104;1249;101008;-76
2023/06/01 12:14:16;;;;;;;;;;;;;;;32.60;25.24;96969.63;108981;1249;99969;-75
2023/06/01 12:17:04;;;;;;;;;;;;;;;32.65;25.48;96965.66;108641;1250;96291;-75
2023/06/01 12:19:33;;;;;;;;;;;;;;;32.76;25.45;96961.93;108830;1250;95836;-75
2023/06/01 12:22:01;;;;;;;;;;;;;;;32.71;25.35;96963.08;109013;1249;103574;-74
2023/06/01 12:24:32;;;;;;;;;;;;;;;32.75;25.13;96961.50;109024;1250;101021;-76
2023/06/01 12:27:01;;;;;;;;;;;;;;;32.87;24.91;96958.50;109002;1249;98899;-76
2023/06/01 12:29:35;;;;;;;;;;;;;;;32.96;24.91;96955.96;108972;1250;95532;-76
2023/06/01 12:32:03;;;;;;;;;;;;;;;32.71;25.08;96953.83;108969;1250;95711;-74
2023/06/01 12:34:32;;;;;;;;;;;;;;;32.56;24.84;96951.98;108933;1250;102568;-76
2023/06/01 12:37:00;;;;;;;;;;;;;;;32.53;25.23;96951.73;109005;1250;100425;-78
2023/06/01 12:39:36;;;;;;;;;;;;;;;32.13;24.80;96946.39;108987;1250;100191;-76
2023/06/01 12:42:05;;;;;;;;;;;;;;;32.00;25.48;96949.73;108950;1250;95614;-74
2023/06/01 12:44:34;;;;;;;;;;;;;;;32.06;25.35;96945.98;109023;1250;95569;-78
2023/06/01 12:47:03;;;;;;;;;;;;;;;32.13;25.84;96942.73;108790;1249;103368;-76